Quincy Regional Baldwin Field
KUIN : now visible

Airfield :











YOU CAN JOIN US ON...

 
LOGIN :

Register | Disclaimer

   EN    FR    IT 

 









Legend :    VFR   Marginal VFR   IFR   Intensive IFR   Very Intensive IFR
Visi :
Ceiling :
>= 8 km
>= 3000ft
5 to 8 km
1000 to 3000 ft
1500m to 5 km
500 to 1000 ft
800 to 1500m
200 to 500 ft
< 800m
< 200 ft
Symbols :   Thunderstorms  Fog  Heavy snow  Heavy precipitations  Wind > 20 kt







- Airport Elevation : 768 ft
- IATA code : UIN


KUIN - Quincy Regional Baldwin Field

CURRENT METAR :
  • 211154Z AUTO 32008KT 10SM CLR 01/M02 A3008 RMK AO2 SLP188 T00061017 10050 20006 51017

EXPIRED METARs :
  • 211054Z AUTO 32008KT 10SM FEW031 01/M02 A3006 RMK AO2 SLP183 T00111017
  • 210954Z AUTO 32007KT 10SM CLR 01/M02 A3004 RMK AO2 SLP175 T00111017

TAF KUIN
Valid from the 21 at 12:00 until the 22 at 12:00 UTC


211121Z 2112/2212 33012G18KT P6SM SCT028
TEMPO 2113/2116 BKN028
FM211600 34012G19KT P6SM SCT035
FM212200 31010KT P6SM SKC
KZKC FIR / North America



MET'MAP, your aeronautical weather chart ! - Copyright ORBIFLY December 2007 - Disclaimer

ORBIFLY MET'MAP TEAM :

Programming & Development : Alexandra Zaïnal
Concept & Development : Baudouin d'Aumeries
Co-Development & Prog : Marc-Olivier Méhu
Technical & hardware support : Manuel Goepfert

Contact : metmap@orbifly.com




SOURCES & CREDITS :

   NOAA       Earth
Advisory